Tinicum Township, Pennsylvania
Current Conditions -  °F | °C
As of 11:54 AM on Sunday 23 Nov 2014 (Local Time) from KPHL Reporting Station
Broken Clouds Broken Clouds  
Wind Chill: 51°   Ceiling: 25000
Heat Index: 51°   Visibility: 10mi
Dew Point: 25°   Wind: 9mph
Humidity: 36%   Direction: 190°S
Pressure: 30.18"   Gusts: NA
Location:  39.868°N, 75.2702°W
Report Text: KPHL 231654Z 19008KT 10SM FEW090 FEW180 BKN250 11/M04 A3018 RMK AO2 SLP220 T01061039 $
Loading
Personal Weather Stations






























Interactive Weather Map New forecast layout! Learn more

10-Day Weather Forecast

Advertisements
Track Severe Weather on mobile